Airfield :
LOGIN :

Register | Disclaimer

   EN    FR    IT 

 










Legend :    VFR   Marginal VFR   IFR   Intensive IFR   Very Intensive IFR
Visi :
Ceiling :
>= 8 km
>= 3000ft
5 to 8 km
1000 to 3000 ft
1500m to 5 km
500 to 1000 ft
800 to 1500m
200 to 500 ft
< 800m
< 200 ft
Symbols :   Thunderstorms  Fog  Heavy snow  Heavy precipitations  Wind > 20 kt
SIGMETs :     Misc.  Thunderstorms  Icing  Turbulence  Mountain Waves  Volcanic Ashes







- Airport Elevation : 84 ft
- Download approach charts


LFBC - Cazaux

CURRENT METAR :
  • 161400Z AUTO 28008KT 240V310 CAVOK 29/15 Q1018 NOSIG

EXPIRED METARs :
  • 161330Z AUTO 29007KT 250V320 CAVOK 29/16 Q1018 NOSIG
  • 161300Z AUTO 28007KT 230V330 CAVOK 29/16 Q1019 NOSIG
  • 161230Z AUTO 28007KT 230V310 CAVOK 29/15 Q1019 NOSIG
  • 161200Z AUTO 29008KT 260V320 CAVOK 29/15 Q1019 NOSIG
  • 161130Z AUTO 30006KT 260V350 CAVOK 29/15 Q1019 NOSIG

TAF TAF LFBC
Valid from the 16 at 09:00 until the 17 at 09:00 UTC


160800Z 1609/1709 26003KT CAVOK
BECMG 1611/1613 32010KT
BECMG 1616/1618 35005KT
BECMG 1623/1701 OVC002
TEMPO 1701/1708 3000 BR
PROB30
TEMPO 1701/1708 0200 FG VV///
BECMG 1708/1709 BKN005
No reported NOTAMs for that airfield.



MET'MAP, your aeronautical weather chart ! - Copyright ORBIFLY December 2007 - Disclaimer

ORBIFLY MET'MAP TEAM :

Programming & Development : Alexandra Zaïnal
Concept & Development : Baudouin d'Aumeries
Co-Development & Prog : Marc-Olivier Méhu
Technical & hardware support : Manuel Goepfert

Contact : metmap@orbifly.com




SOURCES & CREDITS :

   NOAA